sensor_id;sensor_type;location;lat;lon;timestamp;pressure;altitude;pressure_sealevel;temperature;humidity
44001;BME280;29660;42.892;24.710;2022-11-20T00:00:20;96282.78;;;8.46;100.00
44001;BME280;29660;42.892;24.710;2022-11-20T00:05:22;96044.50;;;6.78;100.00
44001;BME280;29660;42.892;24.710;2022-11-20T00:10:24;95991.78;;;6.57;100.00
44001;BME280;29660;42.892;24.710;2022-11-20T00:15:26;95983.34;;;6.55;100.00
44001;BME280;29660;42.892;24.710;2022-11-20T00:20:28;96035.28;;;6.94;100.00
44001;BME280;29660;42.892;24.710;2022-11-20T00:25:29;96351.03;;;8.83;100.00
44001;BME280;29660;42.892;24.710;2022-11-20T00:30:31;95975.03;;;6.62;100.00
44001;BME280;29660;42.892;24.710;2022-11-20T00:35:33;96181.78;;;8.13;100.00
44001;BME280;29660;42.892;24.710;2022-11-20T00:40:36;95740.28;;;5.20;100.00
44001;BME280;29660;42.892;24.710;2022-11-20T00:45:38;96084.03;;;7.50;100.00
44001;BME280;29660;42.892;24.710;2022-11-20T00:50:41;95854.34;;;5.99;100.00
44001;BME280;29660;42.892;24.710;2022-11-20T00:55:43;96277.97;;;8.94;100.00
44001;BME280;29660;42.892;24.710;2022-11-20T01:00:45;96238.56;;;8.69;100.00
44001;BME280;29660;42.892;24.710;2022-11-20T01:05:47;96211.63;;;8.56;100.00
44001;BME280;29660;42.892;24.710;2022-11-20T01:10:48;96244.34;;;8.71;100.00
44001;BME280;29660;42.892;24.710;2022-11-20T01:15:50;96222.00;;;8.72;100.00
44001;BME280;29660;42.892;24.710;2022-11-20T01:20:52;95966.09;;;6.96;100.00
44001;BME280;29660;42.892;24.710;2022-11-20T01:25:54;96148.06;;;8.14;100.00
44001;BME280;29660;42.892;24.710;2022-11-20T01:30:56;96300.41;;;8.88;100.00
44001;BME280;29660;42.892;24.710;2022-11-20T01:36:05;96300.28;;;9.12;100.00
44001;BME280;29660;42.892;24.710;2022-11-20T01:41:08;96309.31;;;9.11;100.00
44001;BME280;29660;42.892;24.710;2022-11-20T01:46:15;96334.66;;;9.08;100.00
44001;BME280;29660;42.892;24.710;2022-11-20T01:51:48;96320.75;;;9.12;100.00
44001;BME280;29660;42.892;24.710;2022-11-20T01:56:54;96222.19;;;8.62;100.00
44001;BME280;29660;42.892;24.710;2022-11-20T02:01:59;96313.84;;;9.10;100.00
44001;BME280;29660;42.892;24.710;2022-11-20T02:07:02;96238.75;;;8.72;100.00
44001;BME280;29660;42.892;24.710;2022-11-20T02:12:06;96271.78;;;8.85;100.00
44001;BME280;29660;42.892;24.710;2022-11-20T02:17:29;96230.84;;;8.67;100.00
44001;BME280;29660;42.892;24.710;2022-11-20T02:22:35;95896.00;;;6.69;100.00
44001;BME280;29660;42.892;24.710;2022-11-20T02:27:40;95923.81;;;6.85;100.00
44001;BME280;29660;42.892;24.710;2022-11-20T02:32:43;95888.25;;;6.73;100.00
44001;BME280;29660;42.892;24.710;2022-11-20T02:37:50;96205.97;;;8.77;100.00
44001;BME280;29660;42.892;24.710;2022-11-20T02:42:54;96255.91;;;8.94;100.00
44001;BME280;29660;42.892;24.710;2022-11-20T02:47:56;96244.97;;;8.95;100.00
44001;BME280;29660;42.892;24.710;2022-11-20T02:52:58;96111.44;;;8.43;100.00
44001;BME280;29660;42.892;24.710;2022-11-20T02:58:00;96202.13;;;9.10;100.00
44001;BME280;29660;42.892;24.710;2022-11-20T03:03:02;95952.47;;;7.35;100.00
44001;BME280;29660;42.892;24.710;2022-11-20T03:08:04;95985.25;;;7.72;100.00
44001;BME280;29660;42.892;24.710;2022-11-20T03:13:06;96265.50;;;9.36;100.00
44001;BME280;29660;42.892;24.710;2022-11-20T03:18:08;96157.22;;;8.95;100.00
44001;BME280;29660;42.892;24.710;2022-11-20T03:23:10;96190.59;;;9.15;100.00
44001;BME280;29660;42.892;24.710;2022-11-20T03:28:12;96250.41;;;9.45;100.00
44001;BME280;29660;42.892;24.710;2022-11-20T03:33:13;96202.66;;;9.13;100.00
44001;BME280;29660;42.892;24.710;2022-11-20T03:38:15;95865.63;;;6.94;100.00
44001;BME280;29660;42.892;24.710;2022-11-20T03:43:17;95957.94;;;7.38;100.00
44001;BME280;29660;42.892;24.710;2022-11-20T03:48:20;96275.44;;;9.44;100.00
44001;BME280;29660;42.892;24.710;2022-11-20T03:53:22;96017.00;;;7.77;100.00
44001;BME280;29660;42.892;24.710;2022-11-20T03:58:24;96258.78;;;9.39;100.00
44001;BME280;29660;42.892;24.710;2022-11-20T04:03:26;96170.13;;;8.88;100.00
44001;BME280;29660;42.892;24.710;2022-11-20T04:08:28;95976.09;;;7.64;100.00
44001;BME280;29660;42.892;24.710;2022-11-20T04:13:30;96010.34;;;8.21;100.00
44001;BME280;29660;42.892;24.710;2022-11-20T04:18:32;96237.88;;;9.59;100.00
44001;BME280;29660;42.892;24.710;2022-11-20T04:23:35;96240.13;;;9.66;100.00
44001;BME280;29660;42.892;24.710;2022-11-20T04:28:38;96315.59;;;10.12;100.00
44001;BME280;29660;42.892;24.710;2022-11-20T04:33:40;96021.78;;;8.35;100.00
44001;BME280;29660;42.892;24.710;2022-11-20T04:38:43;96019.44;;;8.47;100.00
44001;BME280;29660;42.892;24.710;2022-11-20T04:43:53;96273.94;;;10.16;100.00
44001;BME280;29660;42.892;24.710;2022-11-20T04:49:00;95996.69;;;8.55;100.00
44001;BME280;29660;42.892;24.710;2022-11-20T04:54:02;96287.56;;;10.50;100.00
44001;BME280;29660;42.892;24.710;2022-11-20T04:59:04;96110.19;;;9.54;100.00
44001;BME280;29660;42.892;24.710;2022-11-20T05:04:06;96071.00;;;9.46;100.00
44001;BME280;29660;42.892;24.710;2022-11-20T05:09:08;95965.03;;;8.81;100.00
44001;BME280;29660;42.892;24.710;2022-11-20T05:14:10;95965.88;;;8.90;100.00
44001;BME280;29660;42.892;24.710;2022-11-20T05:19:12;96197.38;;;10.52;100.00
44001;BME280;29660;42.892;24.710;2022-11-20T05:24:14;96055.75;;;9.61;100.00
44001;BME280;29660;42.892;24.710;2022-11-20T05:29:16;96293.94;;;10.94;100.00
44001;BME280;29660;42.892;24.710;2022-11-20T05:34:18;95995.00;;;8.73;100.00
44001;BME280;29660;42.892;24.710;2022-11-20T05:39:20;95993.63;;;8.48;100.00
44001;BME280;29660;42.892;24.710;2022-11-20T05:44:22;96237.38;;;9.94;100.00
44001;BME280;29660;42.892;24.710;2022-11-20T05:49:24;96268.69;;;9.88;100.00
44001;BME280;29660;42.892;24.710;2022-11-20T05:54:26;96328.84;;;10.03;100.00
44001;BME280;29660;42.892;24.710;2022-11-20T05:59:28;96331.00;;;10.01;100.00
44001;BME280;29660;42.892;24.710;2022-11-20T06:04:30;96326.75;;;9.86;100.00
44001;BME280;29660;42.892;24.710;2022-11-20T06:09:32;96155.25;;;8.46;100.00
44001;BME280;29660;42.892;24.710;2022-11-20T06:14:34;96355.00;;;9.59;100.00
44001;BME280;29660;42.892;24.710;2022-11-20T06:19:36;96408.25;;;9.73;100.00
44001;BME280;29660;42.892;24.710;2022-11-20T06:24:38;96090.00;;;7.60;100.00
44001;BME280;29660;42.892;24.710;2022-11-20T06:29:40;96079.59;;;7.45;100.00
44001;BME280;29660;42.892;24.710;2022-11-20T06:34:42;96211.41;;;8.20;100.00
44001;BME280;29660;42.892;24.710;2022-11-20T06:39:44;96408.28;;;9.27;100.00
44001;BME280;29660;42.892;24.710;2022-11-20T06:44:46;96048.88;;;6.87;100.00
44001;BME280;29660;42.892;24.710;2022-11-20T06:49:48;96112.88;;;7.19;100.00
44001;BME280;29660;42.892;24.710;2022-11-20T06:54:50;96443.19;;;9.39;100.00
44001;BME280;29660;42.892;24.710;2022-11-20T06:59:52;96485.84;;;9.67;100.00
44001;BME280;29660;42.892;24.710;2022-11-20T07:04:54;96207.41;;;7.90;100.00
44001;BME280;29660;42.892;24.710;2022-11-20T07:09:56;96308.63;;;8.59;100.00
44001;BME280;29660;42.892;24.710;2022-11-20T07:14:58;96505.69;;;9.74;100.00
44001;BME280;29660;42.892;24.710;2022-11-20T07:20:00;96182.84;;;7.60;100.00
44001;BME280;29660;42.892;24.710;2022-11-20T07:25:03;96210.75;;;7.77;100.00
44001;BME280;29660;42.892;24.710;2022-11-20T07:30:05;96334.03;;;8.65;100.00
44001;BME280;29660;42.892;24.710;2022-11-20T07:35:08;96085.34;;;7.14;100.00
44001;BME280;29660;42.892;24.710;2022-11-20T07:40:11;96433.56;;;9.43;100.00
44001;BME280;29660;42.892;24.710;2022-11-20T07:45:13;96159.84;;;8.07;100.00
44001;BME280;29660;42.892;24.710;2022-11-20T07:50:16;96543.69;;;10.40;100.00
44001;BME280;29660;42.892;24.710;2022-11-20T07:55:18;96525.19;;;10.85;100.00
44001;BME280;29660;42.892;24.710;2022-11-20T08:00:20;96221.44;;;9.02;100.00
44001;BME280;29660;42.892;24.710;2022-11-20T08:05:23;96474.09;;;10.42;100.00
44001;BME280;29660;42.892;24.710;2022-11-20T08:10:25;96457.69;;;10.35;100.00
44001;BME280;29660;42.892;24.710;2022-11-20T08:15:27;96517.69;;;10.73;100.00
44001;BME280;29660;42.892;24.710;2022-11-20T08:20:29;96397.09;;;9.85;100.00
44001;BME280;29660;42.892;24.710;2022-11-20T08:25:32;96495.63;;;10.45;100.00
44001;BME280;29660;42.892;24.710;2022-11-20T08:30:36;96161.25;;;8.51;100.00
44001;BME280;29660;42.892;24.710;2022-11-20T08:35:38;96208.63;;;8.77;100.00
44001;BME280;29660;42.892;24.710;2022-11-20T08:40:40;96374.22;;;9.84;100.00
44001;BME280;29660;42.892;24.710;2022-11-20T08:45:42;96197.41;;;8.80;100.00
44001;BME280;29660;42.892;24.710;2022-11-20T09:13:17;96462.28;;;11.29;100.00
44001;BME280;29660;42.892;24.710;2022-11-20T09:18:19;96486.50;;;11.86;100.00
44001;BME280;29660;42.892;24.710;2022-11-20T09:23:20;96504.53;;;12.03;100.00
44001;BME280;29660;42.892;24.710;2022-11-20T09:28:22;96258.84;;;10.78;98.08
44001;BME280;29660;42.892;24.710;2022-11-20T09:33:24;96198.44;;;10.74;98.37
44001;BME280;29660;42.892;24.710;2022-11-20T09:38:26;96050.75;;;9.90;96.59
44001;BME280;29660;42.892;24.710;2022-11-20T09:50:25;96489.31;;;12.95;97.63
44001;BME280;29660;42.892;24.710;2022-11-20T09:55:01;96227.66;;;11.27;94.30
44001;BME280;29660;42.892;24.710;2022-11-20T10:00:06;96474.50;;;12.81;95.31
44001;BME280;29660;42.892;24.710;2022-11-20T10:05:22;96491.06;;;12.91;93.76
44001;BME280;29660;42.892;24.710;2022-11-20T10:10:42;96446.03;;;12.93;94.60
44001;BME280;29660;42.892;24.710;2022-11-20T10:32:02;96238.97;;;11.90;91.89
44001;BME280;29660;42.892;24.710;2022-11-20T10:37:11;96182.06;;;11.64;90.93
44001;BME280;29660;42.892;24.710;2022-11-20T10:42:26;96390.91;;;13.10;90.80
44001;BME280;29660;42.892;24.710;2022-11-20T10:47:31;96426.78;;;13.43;90.93
44001;BME280;29660;42.892;24.710;2022-11-20T10:52:55;96454.78;;;13.63;90.56
44001;BME280;29660;42.892;24.710;2022-11-20T11:03:30;96275.72;;;12.80;89.60
44001;BME280;29660;42.892;24.710;2022-11-20T11:08:38;96256.25;;;12.62;87.68
44001;BME280;29660;42.892;24.710;2022-11-20T11:13:40;96206.91;;;12.16;89.45
44001;BME280;29660;42.892;24.710;2022-11-20T11:18:42;96227.97;;;12.00;89.64
44001;BME280;29660;42.892;24.710;2022-11-20T11:23:44;96408.84;;;13.18;90.73
44001;BME280;29660;42.892;24.710;2022-11-20T11:28:59;96263.19;;;12.20;90.38
44001;BME280;29660;42.892;24.710;2022-11-20T11:34:28;96451.03;;;13.47;91.57
44001;BME280;29660;42.892;24.710;2022-11-20T11:39:31;96241.34;;;12.00;90.79
44001;BME280;29660;42.892;24.710;2022-11-20T11:44:34;96209.38;;;11.78;91.24
44001;BME280;29660;42.892;24.710;2022-11-20T11:55:17;96257.84;;;12.20;91.36
44001;BME280;29660;42.892;24.710;2022-11-20T12:00:22;96307.22;;;12.57;91.41
44001;BME280;29660;42.892;24.710;2022-11-20T12:05:28;96269.81;;;12.31;91.99
44001;BME280;29660;42.892;24.710;2022-11-20T12:15:34;96196.53;;;11.97;93.08
44001;BME280;29660;42.892;24.710;2022-11-20T12:20:41;96399.38;;;13.46;93.56
44001;BME280;29660;42.892;24.710;2022-11-20T12:25:48;96223.09;;;12.28;93.51
44001;BME280;29660;42.892;24.710;2022-11-20T12:47:39;96336.00;;;12.86;98.14
44001;BME280;29660;42.892;24.710;2022-11-20T13:03:34;96467.91;;;13.47;100.00
44001;BME280;29660;42.892;24.710;2022-11-20T13:08:40;96477.22;;;13.41;100.00
44001;BME280;29660;42.892;24.710;2022-11-20T13:19:04;96319.50;;;12.23;100.00
44001;BME280;29660;42.892;24.710;2022-11-20T13:24:28;96545.59;;;13.30;100.00
44001;BME280;29660;42.892;24.710;2022-11-20T13:29:33;96277.75;;;11.22;100.00
44001;BME280;29660;42.892;24.710;2022-11-20T13:34:36;96438.16;;;11.74;100.00
44001;BME280;29660;42.892;24.710;2022-11-20T13:39:38;96614.00;;;12.48;100.00
44001;BME280;29660;42.892;24.710;2022-11-20T13:44:47;96633.44;;;12.31;100.00
44001;BME280;29660;42.892;24.710;2022-11-20T13:49:53;96605.94;;;12.39;100.00
44001;BME280;29660;42.892;24.710;2022-11-20T13:55:06;96620.16;;;12.48;100.00
44001;BME280;29660;42.892;24.710;2022-11-20T14:00:27;96623.09;;;12.38;100.00
44001;BME280;29660;42.892;24.710;2022-11-20T14:05:34;96612.22;;;12.35;100.00
44001;BME280;29660;42.892;24.710;2022-11-20T14:10:36;96574.97;;;12.38;100.00
44001;BME280;29660;42.892;24.710;2022-11-20T14:15:40;96355.47;;;10.98;100.00
44001;BME280;29660;42.892;24.710;2022-11-20T14:20:46;96368.25;;;11.10;100.00
44001;BME280;29660;42.892;24.710;2022-11-20T14:25:48;96298.44;;;10.63;100.00
44001;BME280;29660;42.892;24.710;2022-11-20T14:30:50;96522.75;;;12.10;100.00
44001;BME280;29660;42.892;24.710;2022-11-20T14:35:54;96358.28;;;10.93;100.00
44001;BME280;29660;42.892;24.710;2022-11-20T14:41:16;96462.94;;;11.88;100.00
44001;BME280;29660;42.892;24.710;2022-11-20T14:46:18;96205.13;;;9.95;100.00
44001;BME280;29660;42.892;24.710;2022-11-20T14:51:35;96231.09;;;10.26;100.00
44001;BME280;29660;42.892;24.710;2022-11-20T14:57:01;96436.00;;;11.76;100.00
44001;BME280;29660;42.892;24.710;2022-11-20T15:02:06;96227.44;;;10.44;100.00
44001;BME280;29660;42.892;24.710;2022-11-20T15:07:10;96206.38;;;10.34;100.00
44001;BME280;29660;42.892;24.710;2022-11-20T15:12:17;96222.28;;;10.48;100.00
44001;BME280;29660;42.892;24.710;2022-11-20T15:17:19;96390.88;;;11.43;100.00
44001;BME280;29660;42.892;24.710;2022-11-20T15:22:21;96232.16;;;10.47;100.00
44001;BME280;29660;42.892;24.710;2022-11-20T15:27:23;96161.75;;;9.95;100.00
44001;BME280;29660;42.892;24.710;2022-11-20T15:32:25;96392.13;;;11.37;100.00
44001;BME280;29660;42.892;24.710;2022-11-20T15:37:27;96196.91;;;9.83;100.00
44001;BME280;29660;42.892;24.710;2022-11-20T15:42:30;96415.19;;;11.11;100.00
44001;BME280;29660;42.892;24.710;2022-11-20T15:47:34;96473.19;;;11.41;100.00
44001;BME280;29660;42.892;24.710;2022-11-20T15:52:36;96476.63;;;11.42;100.00
44001;BME280;29660;42.892;24.710;2022-11-20T15:57:42;96352.00;;;10.52;100.00
44001;BME280;29660;42.892;24.710;2022-11-20T16:02:44;96339.78;;;10.51;100.00
44001;BME280;29660;42.892;24.710;2022-11-20T16:07:46;96493.81;;;11.49;100.00
44001;BME280;29660;42.892;24.710;2022-11-20T16:12:48;96217.06;;;9.62;100.00
44001;BME280;29660;42.892;24.710;2022-11-20T16:18:10;96318.63;;;10.19;100.00
44001;BME280;29660;42.892;24.710;2022-11-20T16:23:13;96261.53;;;9.97;100.00
44001;BME280;29660;42.892;24.710;2022-11-20T16:28:15;96493.53;;;11.28;100.00
44001;BME280;29660;42.892;24.710;2022-11-20T16:33:19;96520.38;;;11.54;100.00
44001;BME280;29660;42.892;24.710;2022-11-20T16:38:22;96484.34;;;11.21;100.00
44001;BME280;29660;42.892;24.710;2022-11-20T16:43:24;96352.09;;;10.25;100.00
44001;BME280;29660;42.892;24.710;2022-11-20T16:48:26;96147.56;;;8.99;100.00
44001;BME280;29660;42.892;24.710;2022-11-20T16:53:28;96448.84;;;10.98;100.00
44001;BME280;29660;42.892;24.710;2022-11-20T16:58:30;96262.38;;;9.84;100.00
44001;BME280;29660;42.892;24.710;2022-11-20T17:03:32;96276.59;;;9.79;100.00
44001;BME280;29660;42.892;24.710;2022-11-20T17:08:34;96496.59;;;11.22;100.00
44001;BME280;29660;42.892;24.710;2022-11-20T17:13:36;96231.47;;;9.47;100.00
44001;BME280;29660;42.892;24.710;2022-11-20T17:18:41;96266.72;;;9.66;100.00
44001;BME280;29660;42.892;24.710;2022-11-20T17:23:45;96484.59;;;11.11;100.00
44001;BME280;29660;42.892;24.710;2022-11-20T17:28:59;96220.66;;;9.43;100.00
44001;BME280;29660;42.892;24.710;2022-11-20T17:34:01;96327.66;;;9.95;100.00
44001;BME280;29660;42.892;24.710;2022-11-20T17:39:03;96466.31;;;10.68;100.00
44001;BME280;29660;42.892;24.710;2022-11-20T17:44:08;96410.13;;;10.28;100.00
44001;BME280;29660;42.892;24.710;2022-11-20T17:49:11;96442.56;;;10.57;100.00
44001;BME280;29660;42.892;24.710;2022-11-20T17:54:13;96504.19;;;10.92;100.00
44001;BME280;29660;42.892;24.710;2022-11-20T17:59:15;96278.81;;;9.36;100.00
44001;BME280;29660;42.892;24.710;2022-11-20T18:04:19;96407.53;;;10.23;100.00
44001;BME280;29660;42.892;24.710;2022-11-20T18:09:22;96488.56;;;10.63;100.00
44001;BME280;29660;42.892;24.710;2022-11-20T18:14:24;96277.81;;;9.32;100.00
44001;BME280;29660;42.892;24.710;2022-11-20T18:19:36;96318.63;;;9.55;100.00
44001;BME280;29660;42.892;24.710;2022-11-20T18:24:45;96447.00;;;10.48;100.00
44001;BME280;29660;42.892;24.710;2022-11-20T18:29:48;96463.97;;;10.52;100.00
44001;BME280;29660;42.892;24.710;2022-11-20T18:34:52;96218.28;;;9.14;100.00
44001;BME280;29660;42.892;24.710;2022-11-20T18:39:54;96475.94;;;10.91;100.00
44001;BME280;29660;42.892;24.710;2022-11-20T18:44:57;96308.75;;;9.83;100.00
44001;BME280;29660;42.892;24.710;2022-11-20T18:50:01;96352.09;;;10.25;100.00
44001;BME280;29660;42.892;24.710;2022-11-20T18:55:04;96427.94;;;10.91;100.00
44001;BME280;29660;42.892;24.710;2022-11-20T19:00:06;96192.88;;;9.36;100.00
44001;BME280;29660;42.892;24.710;2022-11-20T19:05:11;96387.41;;;10.67;100.00
44001;BME280;29660;42.892;24.710;2022-11-20T19:10:17;96166.72;;;9.38;100.00
44001;BME280;29660;42.892;24.710;2022-11-20T19:15:23;96174.00;;;9.46;100.00
44001;BME280;29660;42.892;24.710;2022-11-20T19:20:25;96257.69;;;10.03;100.00
44001;BME280;29660;42.892;24.710;2022-11-20T19:25:29;96169.19;;;9.48;100.00
44001;BME280;29660;42.892;24.710;2022-11-20T19:30:37;96403.31;;;10.94;100.00
44001;BME280;29660;42.892;24.710;2022-11-20T19:35:39;96213.66;;;9.83;100.00
44001;BME280;29660;42.892;24.710;2022-11-20T19:40:41;96381.19;;;10.94;100.00
44001;BME280;29660;42.892;24.710;2022-11-20T19:45:43;96385.28;;;11.00;100.00
44001;BME280;29660;42.892;24.710;2022-11-20T19:50:45;96174.25;;;9.72;100.00
44001;BME280;29660;42.892;24.710;2022-11-20T19:55:57;96109.50;;;9.26;100.00
44001;BME280;29660;42.892;24.710;2022-11-20T20:01:07;96336.63;;;10.72;100.00
44001;BME280;29660;42.892;24.710;2022-11-20T20:06:16;96085.47;;;9.18;100.00
44001;BME280;29660;42.892;24.710;2022-11-20T20:11:35;96346.00;;;10.92;100.00
44001;BME280;29660;42.892;24.710;2022-11-20T20:16:39;96353.22;;;10.91;100.00
44001;BME280;29660;42.892;24.710;2022-11-20T20:21:42;96334.31;;;10.79;100.00
44001;BME280;29660;42.892;24.710;2022-11-20T20:26:44;95895.69;;;8.05;100.00
44001;BME280;29660;42.892;24.710;2022-11-20T20:31:47;96312.63;;;10.72;100.00
44001;BME280;29660;42.892;24.710;2022-11-20T20:36:49;96042.72;;;9.14;100.00
44001;BME280;29660;42.892;24.710;2022-11-20T20:41:51;96098.75;;;9.54;100.00
44001;BME280;29660;42.892;24.710;2022-11-20T20:46:53;96215.16;;;10.35;100.00
44001;BME280;29660;42.892;24.710;2022-11-20T20:51:55;96141.63;;;9.89;100.00
44001;BME280;29660;42.892;24.710;2022-11-20T20:56:57;95965.81;;;8.81;100.00
44001;BME280;29660;42.892;24.710;2022-11-20T21:01:59;96037.72;;;9.35;100.00
44001;BME280;29660;42.892;24.710;2022-11-20T21:07:01;96175.78;;;10.31;100.00
44001;BME280;29660;42.892;24.710;2022-11-20T21:12:04;96204.41;;;10.48;100.00
44001;BME280;29660;42.892;24.710;2022-11-20T21:17:06;96214.47;;;10.51;100.00
44001;BME280;29660;42.892;24.710;2022-11-20T21:22:12;96036.41;;;9.46;100.00
44001;BME280;29660;42.892;24.710;2022-11-20T21:27:14;95929.50;;;8.99;100.00
44001;BME280;29660;42.892;24.710;2022-11-20T21:32:16;96116.19;;;10.27;100.00
44001;BME280;29660;42.892;24.710;2022-11-20T21:37:18;95928.13;;;9.02;100.00
44001;BME280;29660;42.892;24.710;2022-11-20T21:42:20;96189.91;;;10.63;100.00
44001;BME280;29660;42.892;24.710;2022-11-20T21:47:22;95933.06;;;9.17;100.00
44001;BME280;29660;42.892;24.710;2022-11-20T21:52:24;96096.16;;;10.30;100.00
44001;BME280;29660;42.892;24.710;2022-11-20T21:57:26;95999.63;;;9.71;100.00
44001;BME280;29660;42.892;24.710;2022-11-20T22:02:27;96071.22;;;10.26;100.00
44001;BME280;29660;42.892;24.710;2022-11-20T22:07:29;95863.03;;;8.99;100.00
44001;BME280;29660;42.892;24.710;2022-11-20T22:12:31;96098.28;;;10.50;100.00
44001;BME280;29660;42.892;24.710;2022-11-20T22:17:33;95831.75;;;8.74;100.00
44001;BME280;29660;42.892;24.710;2022-11-20T22:22:53;96083.78;;;10.34;100.00
44001;BME280;29660;42.892;24.710;2022-11-20T22:27:55;96115.06;;;10.51;100.00
44001;BME280;29660;42.892;24.710;2022-11-20T22:32:57;96048.03;;;10.04;100.00
44001;BME280;29660;42.892;24.710;2022-11-20T22:37:59;95861.47;;;8.76;100.00
44001;BME280;29660;42.892;24.710;2022-11-20T22:43:01;95998.84;;;9.48;100.00
44001;BME280;29660;42.892;24.710;2022-11-20T22:48:03;96050.91;;;10.16;100.00
44001;BME280;29660;42.892;24.710;2022-11-20T22:53:05;96098.56;;;10.49;100.00
44001;BME280;29660;42.892;24.710;2022-11-20T22:58:07;96034.56;;;10.09;100.00
44001;BME280;29660;42.892;24.710;2022-11-20T23:03:09;95761.50;;;8.97;100.00
44001;BME280;29660;42.892;24.710;2022-11-20T23:08:11;95708.16;;;8.63;100.00
44001;BME280;29660;42.892;24.710;2022-11-20T23:13:13;95977.66;;;10.45;100.00
44001;BME280;29660;42.892;24.710;2022-11-20T23:18:15;95914.09;;;10.21;100.00
44001;BME280;29660;42.892;24.710;2022-11-20T23:23:17;95929.97;;;10.26;100.00
44001;BME280;29660;42.892;24.710;2022-11-20T23:28:19;95671.50;;;8.82;100.00
44001;BME280;29660;42.892;24.710;2022-11-20T23:33:21;95763.53;;;9.40;100.00
44001;BME280;29660;42.892;24.710;2022-11-20T23:38:23;95879.78;;;10.19;100.00
44001;BME280;29660;42.892;24.710;2022-11-20T23:43:25;95881.88;;;10.48;100.00
44001;BME280;29660;42.892;24.710;2022-11-20T23:48:29;95655.50;;;9.13;100.00
44001;BME280;29660;42.892;24.710;2022-11-20T23:53:32;95596.75;;;8.75;100.00
44001;BME280;29660;42.892;24.710;2022-11-20T23:58:36;95669.75;;;9.26;100.00
